| time (UTC) | temp C | wind direction | speed KPH | gust KPH | rain 1hr cm | rain 24hr cm | rain mn cm | humidity % | barometer mb |
| 20260903014605 | 17 | 198 | 1.6 | 9.7 | 0.00 | 0.99 | 0.99 | 76 | 1008.5 |
| 20260903013053 | 17 | 0 | 0.0 | 4.8 | 0.00 | 0.99 | 0.99 | 73 | 1008.4 |
| 20260903011549 | 17 | 254 | 1.6 | 8.0 | 0.00 | 0.99 | 0.99 | 72 | 1008.2 |
| 20260903010055 | 17 | 165 | 1.6 | 9.7 | 0.00 | 0.99 | 0.99 | 75 | 1008.1 |
| 20260903004554 | 17 | 175 | 3.2 | 9.7 | 0.00 | 0.99 | 0.99 | 74 | 1008.0 |
| 20260903003049 | 17 | 163 | 3.2 | 12.9 | 0.00 | 0.99 | 0.99 | 71 | 1007.9 |
| 20260903001554 | 17 | 159 | 3.2 | 11.3 | 0.00 | 0.99 | 0.99 | 74 | 1007.9 |
| 20260903000050 | 17 | 155 | 1.6 | 6.4 | 0.00 | 0.99 | 0.99 | 81 | 1007.9 |
| 20260902234623 | 16 | 0 | 1.6 | 6.4 | 0.03 | 0.99 | 0.99 | 83 | 1007.8 |
| 20260902233056 | 16 | 99 | 1.6 | 4.8 | 0.05 | 0.99 | 0.99 | 86 | 1007.6 |
| 20260902231608 | 15 | 134 | 1.6 | 9.7 | 0.08 | 0.99 | 0.99 | 89 | 1007.6 |
| 20260902230114 | 15 | 0 | 0.0 | 6.4 | 0.13 | 0.99 | 0.99 | 90 | 1007.5 |
| 20260902224556 | 15 | 76 | 0.0 | 4.8 | 0.13 | 0.99 | 0.97 | 93 | 1007.3 |
| 20260902223053 | 15 | 59 | 0.0 | 3.2 | 0.15 | 0.97 | 0.94 | 96 | 1007.2 |
| 20260902221550 | 15 | 0 | 0.0 | 6.4 | 0.18 | 0.94 | 0.91 | 95 | 1006.9 |
| 20260902214550 | 14 | 221 | 3.2 | 12.9 | 0.20 | 0.86 | 0.84 | 95 | 1006.5 |
| 20260902213048 | 14 | 236 | 1.6 | 6.4 | 0.18 | 0.81 | 0.79 | 96 | 1006.4 |
| 20260902211557 | 14 | 0 | 1.6 | 6.4 | 0.18 | 0.76 | 0.74 | 95 | 1006.4 |
| 20260902210056 | 13 | 202 | 4.8 | 14.5 | 0.18 | 0.71 | 0.69 | 95 | 1006.2 |
| 20260902204601 | 13 | 117 | 3.2 | 19.3 | 0.15 | 0.66 | 0.64 | 95 | 1006.4 |
| 20260902203100 | 13 | 138 | 4.8 | 12.9 | 0.18 | 0.64 | 0.61 | 95 | 1006.2 |
| 20260902201556 | 13 | 229 | 0.0 | 4.8 | 0.15 | 0.58 | 0.56 | 95 | 1006.1 |
| 20260902200051 | 13 | 0 | 0.0 | 6.4 | 0.13 | 0.53 | 0.51 | 95 | 1006.3 |
| 20260902194547 | 13 | 73 | 1.6 | 6.4 | 0.13 | 0.51 | 0.48 | 95 | 1006.2 |
| 20260902193053 | 13 | 349 | 1.6 | 8.0 | 0.13 | 0.46 | 0.43 | 94 | 1006.4 |
| 20260902191600 | 13 | 269 | 3.2 | 14.5 | 0.10 | 0.43 | 0.41 | 93 | 1006.5 |
| 20260902190105 | 13 | 200 | 4.8 | 14.5 | 0.10 | 0.41 | 0.38 | 93 | 1006.8 |
| 20260902184555 | 13 | 0 | 3.2 | 9.7 | 0.05 | 0.36 | 0.33 | 93 | 1007.0 |
| 20260902183052 | 13 | 136 | 1.6 | 9.7 | 0.05 | 0.33 | 0.30 | 93 | 1006.9 |
| 20260902181600 | 13 | 95 | 0.0 | 3.2 | 0.08 | 0.33 | 0.30 | 94 | 1007.0 |
| 20260902180103 | 13 | 110 | 1.6 | 4.8 | 0.10 | 0.30 | 0.28 | 93 | 1007.1 |
| 20260902174602 | 13 | 158 | 0.0 | 4.8 | 0.15 | 0.30 | 0.28 | 93 | 1007.4 |
| 20260902173049 | 13 | 130 | 0.0 | 11.3 | 0.15 | 0.28 | 0.25 | 93 | 1007.4 |
| 20260902171606 | 13 | 0 | 0.0 | 3.2 | 0.15 | 0.25 | 0.23 | 93 | 1007.5 |
| 20260902170054 | 13 | 195 | 0.0 | 6.4 | 0.10 | 0.20 | 0.18 | 92 | 1007.3 |
| 20260902164601 | 13 | 0 | 0.0 | 6.4 | 0.08 | 0.15 | 0.13 | 92 | 1007.4 |
| 20260902163057 | 13 | 0 | 0.0 | 3.2 | 0.05 | 0.13 | 0.10 | 92 | 1007.5 |
| 20260902161559 | 13 | 0 | 0.0 | 0.0 | 0.05 | 0.10 | 0.08 | 91 | 1007.6 |
| 20260902160059 | 13 | 0 | 0.0 | 1.6 | 0.05 | 0.10 | 0.08 | 93 | 1007.5 |
| 20260902154559 | 13 | 0 | 0.0 | 1.6 | 0.05 | 0.08 | 0.05 | 92 | 1007.5 |
| 20260902153117 | 13 | 0 | 0.0 | 1.6 | 0.05 | 0.08 | 0.05 | 93 | 1007.8 |
| 20260902151551 | 13 | 228 | 1.6 | 6.4 | 0.03 | 0.05 | 0.03 | 92 | 1007.9 |
| 20260902150052 | 13 | 0 | 0.0 | 0.0 | 0.03 | 0.05 | 0.03 | 92 | 1008.0 |
| 20260902144559 | 13 | 0 | 0.0 | 1.6 | 0.00 | 0.03 | 0.00 | 92 | 1008.1 |
| 20260902143059 | 13 | 169 | 1.6 | 6.4 | 0.00 | 0.03 | 0.00 | 93 | 1008.2 |
| 20260902141555 | 13 | 0 | 0.0 | 3.2 | 0.00 | 0.03 | 0.00 | 92 | 1008.3 |
| 20260902140111 | 12 | 0 | 0.0 | 0.0 | 0.00 | 0.03 | 0.00 | 92 | 1008.3 |
| 20260902134553 | 13 | 0 | 0.0 | 3.2 | 0.00 | 0.03 | 0.00 | 92 | 1008.6 |
| 20260902133101 | 13 | 0 | 0.0 | 1.6 | 0.00 | 0.03 | 0.00 | 92 | 1008.7 |
| 20260902131559 | 13 | 0 | 0.0 | 3.2 | 0.00 | 0.03 | 0.00 | 92 | 1008.9 |
| 20260902130056 | 13 | 0 | 0.0 | 1.6 | 0.00 | 0.03 | 0.00 | 92 | 1009.3 |
| 20260902124609 | 13 | 0 | 0.0 | 1.6 | 0.00 | 0.03 | 0.00 | 92 | 1009.5 |
| 20260902123100 | 12 | 0 | 1.6 | 3.2 | 0.00 | 0.03 | 0.00 | 93 | 1009.6 |
| 20260902121606 | 12 | 0 | 0.0 | 3.2 | 0.00 | 0.03 | 0.00 | 93 | 1009.7 |
| 20260902120058 | 12 | 0 | 0.0 | 0.0 | 0.00 | 0.03 | 0.00 | 94 | 1009.9 |
| 20260902114607 | 12 | 0 | 0.0 | 4.8 | 0.00 | 0.03 | 0.00 | 94 | 1010.2 |
| 20260902113100 | 12 | 0 | 0.0 | 0.0 | 0.00 | 0.03 | 0.00 | 94 | 1010.3 |
| 20260902111559 | 12 | 156 | 0.0 | 3.2 | 0.00 | 0.03 | 0.00 | 94 | 1010.4 |
| 20260902110052 | 12 | 0 | 0.0 | 0.0 | 0.00 | 0.03 | 0.00 | 93 | 1010.6 |
| 20260902104557 | 12 | 0 | 0.0 | 0.0 | 0.00 | 0.03 | 0.00 | 93 | 1010.6 |
| 20260902103115 | 12 | 0 | 0.0 | 3.2 | 0.00 | 0.03 | 0.00 | 93 | 1010.6 |
| 20260902101552 | 12 | 0 | 0.0 | 0.0 | 0.00 | 0.03 | 0.00 | 93 | 1010.7 |
| 20260902100049 | 12 | 0 | 0.0 | 0.0 | 0.00 | 0.03 | 0.00 | 92 | 1010.8 |
| 20260902094556 | 12 | 156 | 0.0 | 0.0 | 0.00 | 0.03 | 0.00 | 93 | 1010.8 |
| 20260902093102 | 12 | 0 | 0.0 | 0.0 | 0.00 | 0.03 | 0.00 | 93 | 1010.9 |
| 20260902091559 | 12 | 156 | 0.0 | 3.2 | 0.00 | 0.03 | 0.00 | 91 | 1010.9 |
| 20260902090100 | 12 | 0 | 0.0 | 3.2 | 0.00 | 0.03 | 0.00 | 90 | 1011.2 |
| 20260902084551 | 12 | 0 | 0.0 | 1.6 | 0.00 | 0.03 | 0.00 | 89 | 1011.3 |
| 20260902083059 | 13 | 166 | 0.0 | 6.4 | 0.00 | 0.03 | 0.00 | 88 | 1011.4 |
| 20260902081558 | 13 | 0 | 0.0 | 4.8 | 0.00 | 0.03 | 0.00 | 88 | 1011.5 |
| 20260902080053 | 13 | 0 | 0.0 | 4.8 | 0.00 | 0.03 | 0.00 | 87 | 1011.5 |
| 20260902074613 | 13 | 0 | 0.0 | 3.2 | 0.00 | 0.03 | 0.00 | 87 | 1011.6 |
| 20260902073104 | 13 | 0 | 1.6 | 8.0 | 0.00 | 0.03 | 0.00 | 87 | 1011.7 |
| 20260902071559 | 13 | 184 | 1.6 | 6.4 | 0.00 | 0.03 | 0.00 | 91 | 1011.8 |
| 20260902070055 | 12 | 119 | 0.0 | 8.0 | 0.00 | 0.03 | 0.00 | 92 | 1011.8 |
| 20260902064552 | 12 | 0 | 1.6 | 4.8 | 0.00 | 0.03 | 0.03 | 92 | 1011.9 |
| 20260902063057 | 12 | 0 | 0.0 | 4.8 | 0.00 | 0.03 | 0.03 | 91 | 1011.8 |
| 20260902061554 | 12 | 0 | 0.0 | 3.2 | 0.00 | 0.03 | 0.03 | 91 | 1011.9 |
| 20260902060104 | 12 | 283 | 0.0 | 4.8 | 0.00 | 0.03 | 0.03 | 91 | 1012.0 |
| 20260902054559 | 12 | 0 | 0.0 | 4.8 | 0.00 | 0.03 | 0.03 | 90 | 1012.0 |
| 20260902053102 | 13 | 0 | 0.0 | 3.2 | 0.00 | 0.03 | 0.03 | 89 | 1012.2 |
| 20260902051556 | 13 | 263 | 1.6 | 3.2 | 0.00 | 0.03 | 0.03 | 89 | 1012.3 |
| 20260902050049 | 13 | 0 | 0.0 | 4.8 | 0.00 | 0.03 | 0.03 | 88 | 1012.2 |
| 20260902044555 | 14 | 0 | 0.0 | 3.2 | 0.00 | 0.03 | 0.03 | 88 | 1012.4 |
| 20260902043056 | 14 | 0 | 0.0 | 3.2 | 0.00 | 0.03 | 0.03 | 87 | 1012.6 |
| 20260902041600 | 14 | 209 | 0.0 | 4.8 | 0.00 | 0.03 | 0.03 | 87 | 1012.4 |
| 20260902040105 | 14 | 315 | 1.6 | 4.8 | 0.00 | 0.03 | 0.03 | 87 | 1012.4 |
| 20260902034605 | 14 | 271 | 1.6 | 4.8 | 0.00 | 0.03 | 0.03 | 87 | 1012.4 |
| 20260902033100 | 15 | 269 | 1.6 | 4.8 | 0.00 | 0.03 | 0.03 | 85 | 1012.3 |
| 20260902031552 | 15 | 228 | 1.6 | 4.8 | 0.00 | 0.03 | 0.03 | 85 | 1012.5 |
| 20260902030057 | 16 | 0 | 0.0 | 4.8 | 0.00 | 0.03 | 0.03 | 83 | 1012.4 |
| 20260902024553 | 17 | 95 | 0.0 | 3.2 | 0.00 | 0.03 | 0.03 | 78 | 1012.3 |
| 20260902023050 | 17 | 163 | 0.0 | 1.6 | 0.00 | 0.03 | 0.03 | 73 | 1012.1 |
| 20260902021546 | 17 | 0 | 0.0 | 6.4 | 0.00 | 0.03 | 0.03 | 73 | 1012.1 |
| 20260902020100 | 17 | 232 | 1.6 | 11.3 | 0.00 | 0.03 | 0.03 | 75 | 1012.1 |